• Join FlightAware (Why Join?)
  • Login
  • US Flag 
05:45AM EDT


 

Airport Tracker/Info


-or-


 

Live Flight TrackerFlight Track Log ✈ JBU917 ✈ 09-May-2013 ✈ KJFK - KORD

Flight Track Log - Related Links

Times and Time Zones

All times are in EDT time to prevent confusion due to time zone crossing. See the JBU917 flight status page for this flight to view local times or setup timezone preferences in your user account.

Time Position Orientation Groundspeed Altitude Reporting Facility
EDT Latitude Longitude Course Direction KTS MPH feet Rate Location/Type
09:06PM 40.6167 -73.7833 306° West 152 175 800  Level New York TRACON
09:08PM 40.5833 -73.7167 123° Southeast 254 292 4,500 2,340 Climbing New York TRACON
09:09PM 40.8465 -74.1762 304° West  Level FlightAware Approximate
09:09PM 40.6333 -73.6333 52° Northeast 278 320 7,900  Level New York TRACON
09:10PM 40.9019 -74.2811 306° West  Level FlightAware Approximate
09:10PM 40.7000 -73.5500 43° Northeast 293 337 10,900  Level New York TRACON
09:11PM 40.9585 -74.3851 306° West  Level FlightAware Approximate
09:13PM 40.8972 -73.5767 354° North 379 436 16,400  Level New York Center
09:14PM 40.9408 -73.6608 304° West 370 426 17,000 300 Climbing New York Center
09:15PM 41.0003 -73.7817 303° West 360 414 17,000  Level New York Center
09:16PM 41.0203 -73.8981 283° West 354 407 17,000 1,020 Level New York Center
09:17PM 41.0500 -74.0314 287° West 354 407 19,100 1,980 Climbing New York Center
09:18PM 41.0839 -74.1569 290° West 359 413 21,100 1,920 Climbing New York Center
09:19PM 41.1242 -74.2803 293° West 365 420 23,100 1,860 Climbing New York Center
09:20PM 41.1617 -74.4089 291° West 365 420 24,900 900 Climbing New York Center
09:21PM 41.1994 -74.5378 291° West 372 428 25,000  Climbing New York Center
09:22PM 41.2389 -74.6669 292° West 372 428 25,000 360 Level New York Center
09:23PM 41.2761 -74.7989 291° West 377 434 25,800 960 Climbing New York Center
09:24PM 41.3117 -74.9197 291° West 377 434 27,000 1,140 Climbing New York Center
09:25PM 41.3506 -75.0547 291° West 389 448 28,200 1,200 Climbing New York Center
09:26PM 41.3914 -75.1900 292° West 394 453 29,500 1,200 Climbing New York Center
09:27PM 41.4297 -75.3281 290° West 394 453 30,600 1,140 Climbing New York Center
09:28PM 41.4683 -75.4636 291° West 394 453 31,800 1,140 Climbing New York Center
09:29PM 41.5086 -75.5994 292° West 394 453 33,000 960 Climbing New York Center
09:30PM 41.5467 -75.7353 291° West 394 453 33,800 840 Climbing New York Center
09:31PM 41.5869 -75.8658 292° West 394 453 34,700 780 Climbing New York Center
09:32PM 41.6247 -76.0047 290° West 394 453 35,400 600 Climbing New York Center
09:33PM 41.6625 -76.1381 291° West 394 453 35,900 240 Climbing New York Center
09:34PM 41.7000 -76.2772 290° West 394 453 36,000  Climbing New York Center
09:35PM 41.7467 -76.4367 291° West 399 459 36,000  Level New York Center
09:36PM 41.7781 -76.5592 289° West 394 453 36,000  Level New York Center
09:38PM 41.8761 -76.9072 291° West 402 463 36,000  Level Cleveland Center
09:39PM 41.9161 -77.0475 291° West 402 463 36,000  Level Cleveland Center
09:40PM 41.9517 -77.1878 289° West 402 463 36,000  Level Cleveland Center
09:41PM 41.9911 -77.3311 290° West 402 463 36,000  Level Cleveland Center
09:42PM 42.0283 -77.4717 290° West 402 463 36,000  Level Cleveland Center
09:43PM 42.0653 -77.6097 290° West 402 463 36,000  Level Cleveland Center
09:44PM 42.1000 -77.7456 289° West 402 463 36,000  Level Cleveland Center
09:45PM 42.1367 -77.8811 290° West 397 457 36,000  Level Cleveland Center
09:46PM 42.1711 -78.0142 289° West 387 445 36,000  Level Cleveland Center
09:47PM 42.2053 -78.1500 289° West 382 440 36,000  Level Cleveland Center
09:48PM 42.2414 -78.2889 289° West 382 440 36,000  Level Cleveland Center
09:49PM 42.2775 -78.4250 290° West 382 440 36,000  Level Cleveland Center
09:50PM 42.3133 -78.5672 289° West 387 445 36,000  Level Cleveland Center
09:51PM 42.3492 -78.7036 290° West 387 445 36,000  Level Cleveland Center
09:52PM 42.3844 -78.8403 289° West 387 445 36,000  Level Cleveland Center
09:53PM 42.4200 -78.9883 288° West 382 440 36,000  Level Cleveland Center
09:54PM 42.4508 -79.1142 288° West 387 445 36,000  Level Cleveland Center
09:55PM 42.4858 -79.2542 289° West 387 445 36,000  Level Cleveland Center
09:56PM 42.5000 -79.3975 278° West 381 438 36,000  Level Cleveland Center
09:57PM 42.5033 -79.5383 272° West 381 438 36,000  Level Cleveland Center
09:58PM 42.5131 -79.6847 275° West 386 444 36,000  Level Cleveland Center
09:59PM 42.5203 -79.8311 274° West 386 444 36,000  Level Cleveland Center
10:00PM 42.5253 -79.9917 272° West 386 444 36,000  Level Cleveland Center
10:01PM 42.5303 -80.1353 273° West 386 444 36,000  Level Cleveland Center
10:02PM 42.5369 -80.2789 274° West 386 444 36,000  Level Cleveland Center
10:03PM 42.5414 -80.4225 272° West 386 444 36,000  Level Cleveland Center
10:04PM 42.5478 -80.5633 274° West 377 434 36,000  Level Cleveland Center
10:05PM 42.5539 -80.7100 273° West 383 441 36,000  Level Cleveland Center
10:06PM 42.5600 -80.8369 274° West 384 442 36,000  Level Cleveland Center
10:07PM 42.5636 -80.9836 272° West 384 442 36,000  Level Cleveland Center
10:08PM 42.5694 -81.1300 273° West 384 442 36,000  Level Cleveland Center
10:09PM 42.5747 -81.2767 273° West 384 442 36,000  Level Cleveland Center
10:10PM 42.5800 -81.4206 273° West 384 442 36,000  Level Cleveland Center
10:11PM 42.6019 -81.5619 282° West 384 442 36,000  Level Cleveland Center
10:12PM 42.6278 -81.7064 284° West 389 448 36,000  Level Cleveland Center
10:13PM 42.6533 -81.8564 283° West 389 448 36,000  Level Cleveland Center
10:14PM 42.6786 -82.0008 283° West 394 453 36,000  Level Cleveland Center
10:15PM 42.7019 -82.1428 283° West 394 453 36,000  Level Cleveland Center
10:16PM 42.7289 -82.2847 285° West 394 453 36,000  Level Cleveland Center
10:17PM 42.7517 -82.4294 282° West 394 453 36,000  Level Cleveland Center
10:18PM 42.7744 -82.5744 282° West 394 453 36,000  Level Cleveland Center
10:19PM 42.7989 -82.7139 283° West 394 453 36,000  Level Cleveland Center
10:20PM 42.8044 -82.8583 273° West 394 453 36,000  Level Cleveland Center
10:21PM 42.8100 -83.0058 273° West 389 448 36,000 -60 Level Cleveland Center
10:22PM 42.8131 -83.1531 272° West 389 448 35,900 -660 Descending Cleveland Center
10:23PM 42.8200 -83.3033 274° West 389 448 34,700 -1,200 Descending Cleveland Center
10:24PM 42.8228 -83.4481 272° West 389 448 33,500 -1,200 Descending Cleveland Center
10:25PM 42.8250 -83.6008 271° West 396 456 32,400 -780 Descending Cleveland Center
10:26PM 42.8292 -83.7542 272° West 401 461 32,000 -180 Descending Cleveland Center
10:28PM 42.8344 -84.0278 272° West 406 467 32,000  Level Chicago Center
10:29PM 42.8378 -84.1806 272° West 406 467 32,000  Level Chicago Center
10:30PM 42.8411 -84.3628 271° West 403 464 32,000  Level Chicago Center
10:31PM 42.8436 -84.5164 271° West 407 468 32,000  Level Chicago Center
10:32PM 42.8464 -84.6686 271° West 404 465 32,000  Level Chicago Center
10:33PM 42.8489 -84.8217 271° West 404 465 32,000  Level Chicago Center
10:34PM 42.8444 -84.9733 268° West 402 463 32,000  Level Chicago Center
10:35PM 42.8275 -85.1247 261° West 404 465 32,000  Level Chicago Center
10:36PM 42.8111 -85.2767 262° West 405 466 32,000  Level Chicago Center
10:37PM 42.7939 -85.4297 261° West 408 470 32,000 -1,020 Level Chicago Center
10:38PM 42.7717 -85.5808 259° West 407 468 30,000 -2,100 Descending Chicago Center
10:39PM 42.7447 -85.7314 256° West 409 471 27,800 -2,100 Descending Chicago Center
10:40PM 42.7178 -85.8769 256° West 397 457 25,700 -2,220 Descending Chicago Center
10:42PM 42.6869 -86.0481 256° West 386 444 23,300 -2,160 Descending Chicago Center
10:43PM 42.6622 -86.1853 256° West 377 434 21,300 -1,920 Descending Chicago Center
10:44PM 42.6367 -86.3225 256° West 374 430 19,400 -1,560 Descending Chicago Center
10:45PM 42.6097 -86.4603 255° West 376 433 18,200 -1,260 Descending Chicago Center
10:46PM 42.5844 -86.5967 256° West 374 430 16,900 -1,320 Descending Chicago Center
10:47PM 42.5592 -86.7339 256° West 376 433 15,600 -1,260 Descending Chicago Center
10:48PM 42.5253 -86.8628 250° West 369 425 14,400 -1,200 Descending Chicago Center
10:49PM 42.4908 -86.9872 249° West 358 412 13,200 -1,200 Descending Chicago Center
10:50PM 42.4553 -87.1092 248° West 352 405 12,000 -1,200 Descending Chicago Center
10:51PM 42.4231 -87.2283 250° West 341 392 10,800 -1,020 Descending Chicago Center
10:52PM 42.3836 -87.3675 249° West 331 381 10,000 -420 Descending Chicago Center
10:53PM 42.3514 -87.4867 250° West 331 381 10,000  Level Chicago Center
10:54PM 42.2947 -87.5797 231° Southwest 327 376 10,000 -180 Level Chicago Center
10:55PM 42.2322 -87.6481 219° Southwest 298 343 9,700 -1,020 Descending Chicago Center
10:56PM 42.1750 -87.7078 218° Southwest 272 313 8,000 -1,380 Descending Chicago Center
10:57PM 42.1189 -87.7669 218° Southwest 262 302 7,000 -720 Descending Chicago Center
10:57PM 42.1000 -87.7833 213° Southwest 261 300 7,100  Climbing Chicago TRACON
10:58PM 42.1000 -87.9000 270° West 268 308 7,000 -60 Descending Chicago TRACON
10:59PM 42.1000 -87.9833 270° West 209 241 7,000  Level Chicago TRACON
11:00PM 42.1000 -88.0500 270° West 176 203 7,000 -360 Level Chicago TRACON
11:01PM 42.0833 -88.1167 251° West 176 203 6,300 -960 Descending Chicago TRACON
11:02PM 42.0908 -88.1606 283° West 178 205 5,300 -1,260 Descending Chicago Center
11:03PM 42.0711 -88.2100 242° Southwest 181 208 4,000 -660 Descending Chicago Center
11:04PM 42.0269 -88.2067 177° South 163 188 4,000 -120 Level Chicago Center
11:05PM 41.9933 -88.1742 144° Southeast 171 197 3,800 -480 Descending Chicago Center
11:06PM 41.9750 -88.1164 113° Southeast 172 198 3,100 -780 Descending Chicago Center
11:07PM 41.9686 -88.0539 98° East 171 197 2,300 -780 Descending Chicago Center
11:08PM 41.9683 -87.9886 90° East 159 183 1,600 -540 Descending Chicago Center
11:09PM 41.9686 -87.9428 90° East 152 175 1,300 -300 Descending Chicago Center